Airfield :







YOU CAN JOIN US ON...

 
LOGIN :

Register | Disclaimer

   EN    FR    IT 

 









Legend :    VFR   Marginal VFR   IFR   Intensive IFR   Very Intensive IFR
Visi :
Ceiling :
>= 8 km
>= 3000ft
5 to 8 km
1000 to 3000 ft
1500m to 5 km
500 to 1000 ft
800 to 1500m
200 to 500 ft
< 800m
< 200 ft
Symbols :   Thunderstorms  Fog  Heavy snow  Heavy precipitations  Wind > 20 kt






- Airport Elevation : 881 ft


KNY0 - Fulton County

CURRENT METAR :
  • 200217Z AUTO 33007KT 10SM SCT050 BKN070 OVC085 M11/M14 A2997 RMK AO2

EXPIRED METARs :
  • 200157Z AUTO 34005G08KT 7SM SCT040 BKN060 OVC065 M11/M14 A2996 RMK AO2
  • 200137Z AUTO 33007G15KT 5SM SCT020 SCT040 OVC060 M10/M14 A2994 RMK AO2
  • 200117Z AUTO 33007KT 2 1/2SM SCT018 BKN024 OVC050 M10/M11 A2993 RMK AO2
  • 200057Z AUTO 34012G17KT 4SM SCT025 SCT035 OVC055 M09/M13 A2992 RMK AO2
  • 200037Z AUTO 35012G18KT 10SM SCT024 OVC055 M08/M14 A2991 RMK AO2
  • 200017Z AUTO 34012G16KT 10SM SCT024 BKN055 OVC090 M08/M12 A2989 RMK AO2
  • 192357Z AUTO 33014G19KT 10SM SCT070 OVC090 M08/M12 A2987 RMK AO2
  • 192337Z AUTO 32011G16KT 10SM BKN070 OVC090 M08/M12 A2986 RMK AO2

TAF N/A



MET'MAP, your aeronautical weather chart ! - Copyright ORBIFLY December 2007 - Disclaimer

ORBIFLY MET'MAP TEAM :

Programming & Development : Alexandra Zaïnal
Concept & original design : Baudouin d'Aumeries
Assistance for programming : Marc-Olivier Méhu
Technical & hardware support : Manuel Goepfert

Contact : metmap@orbifly.com




SOURCES & CREDITS :

   NOAA